Terminal Aerodrome Forecast
Issued by NWS

Home | Current Version | Previous Version | Text Only | Print | Product List | Glossary On
Versions: 1 2 3 4 5 6 7 8 9 10 11 12 13 14 15 16
000
FTUS41 KRNK 231739
TAFBCB
TAF
KBCB 231739Z 2318/2418 12010KT 3SM -SHRA OVC003
     FM232000 13013KT 2SM SHRA OVC010 WS020/17040KT
     FM240100 18008KT 3SM SHRA OVC050
     FM240300 23005KT P6SM BKN050
     FM241300 23004KT P6SM FEW250=

USA.gov is the U.S. government's official web portal to all federal, state and local government web resources and services.